Terminal Aerodrome Forecast
Issued by NWS

Home | Current Version | Previous Version | Text Only | Print | Product List | Glossary On
Versions: 1 2 3 4 5 6 7 8 9 10 11 12 13 14 15 16 17 18 19 20 21 22 23 24 25 26 27 28 29 30 31 32
000
FTAK31 PAFA 251140
TAFAFA
TAF
PAFA 251140Z 2512/2618 00000KT P6SM -SHSN BKN040 OVC070
     FM251800 VRB03KT P6SM VCSH SCT060 OVC120
     FM260400 VRB03KT 2SM -SN BR SCT015 OVC025=

USA.gov is the U.S. government's official web portal to all federal, state and local government web resources and services.